sensor_id;sensor_type;location;lat;lon;timestamp;pressure;altitude;pressure_sealevel;temperature;humidity
7075;BME280;3578;51.568;6.932;2022-08-11T00:02:32;56261.56;;;-144.14;57.92
7075;BME280;3578;51.568;6.932;2022-08-11T00:05:04;56199.38;;;-144.14;59.97
7075;BME280;3578;51.568;6.932;2022-08-11T00:07:34;56193.34;;;-144.14;62.28
7075;BME280;3578;51.568;6.932;2022-08-11T00:10:03;56181.31;;;-144.14;65.03
7075;BME280;3578;51.568;6.932;2022-08-11T00:12:30;56167.28;;;-144.14;66.35
7075;BME280;3578;51.568;6.932;2022-08-11T00:14:59;56121.16;;;-144.14;67.18
7075;BME280;3578;51.568;6.932;2022-08-11T00:17:29;56073.00;;;-144.14;67.71
7075;BME280;3578;51.568;6.932;2022-08-11T00:20:04;56105.09;;;-144.14;68.18
7075;BME280;3578;51.568;6.932;2022-08-11T00:22:34;56081.03;;;-144.14;68.45
7075;BME280;3578;51.568;6.932;2022-08-11T00:25:10;56129.16;;;-144.14;68.02
7075;BME280;3578;51.568;6.932;2022-08-11T00:27:39;56103.09;;;-144.14;68.39
7075;BME280;3578;51.568;6.932;2022-08-11T00:30:09;56044.94;;;-144.14;68.70
7075;BME280;3578;51.568;6.932;2022-08-11T00:32:40;56067.00;;;-144.14;69.26
7075;BME280;3578;51.568;6.932;2022-08-11T00:35:12;56020.88;;;-144.14;69.75
7075;BME280;3578;51.568;6.932;2022-08-11T00:37:44;55988.78;;;-144.14;70.27
7075;BME280;3578;51.568;6.932;2022-08-11T00:40:22;55964.69;;;-144.14;70.37
7075;BME280;3578;51.568;6.932;2022-08-11T00:43:00;55952.66;;;-144.14;71.83
7075;BME280;3578;51.568;6.932;2022-08-11T00:45:39;55922.59;;;-144.14;72.51
7075;BME280;3578;51.568;6.932;2022-08-11T00:48:30;55944.66;;;-144.14;72.60
7075;BME280;3578;51.568;6.932;2022-08-11T00:51:09;55880.47;;;-144.14;73.42
7075;BME280;3578;51.568;6.932;2022-08-11T00:53:51;55894.50;;;-144.14;73.02
7075;BME280;3578;51.568;6.932;2022-08-11T00:57:09;55822.31;;;-144.14;73.77
7075;BME280;3578;51.568;6.932;2022-08-11T01:00:10;55816.28;;;-144.14;74.27
7075;BME280;3578;51.568;6.932;2022-08-11T01:02:46;55768.16;;;-144.14;74.66
7075;BME280;3578;51.568;6.932;2022-08-11T01:05:39;55788.19;;;-144.14;75.92
7075;BME280;3578;51.568;6.932;2022-08-11T01:08:36;55760.13;;;-144.14;76.35
7075;BME280;3578;51.568;6.932;2022-08-11T01:11:39;55712.00;;;-144.14;77.06
7075;BME280;3578;51.568;6.932;2022-08-11T01:31:56;55569.59;;;-144.14;79.48
7075;BME280;3578;51.568;6.932;2022-08-11T01:38:24;55553.56;;;-144.14;80.71
7075;BME280;3578;51.568;6.932;2022-08-11T01:41:25;55551.56;;;-144.14;79.73
7075;BME280;3578;51.568;6.932;2022-08-11T01:45:15;55525.47;;;-144.14;79.76
7075;BME280;3578;51.568;6.932;2022-08-11T01:47:57;55515.44;;;-144.14;81.04
7075;BME280;3578;51.568;6.932;2022-08-11T01:51:03;55497.41;;;-144.14;81.69
7075;BME280;3578;51.568;6.932;2022-08-11T01:53:46;55471.34;;;-144.14;82.21
7075;BME280;3578;51.568;6.932;2022-08-11T01:59:20;55453.28;;;-144.14;82.04
7075;BME280;3578;51.568;6.932;2022-08-11T02:02:15;55453.28;;;-144.14;82.34
7075;BME280;3578;51.568;6.932;2022-08-11T02:04:53;55443.25;;;-144.14;82.46
7075;BME280;3578;51.568;6.932;2022-08-11T02:07:31;55419.19;;;-144.14;82.82
7075;BME280;3578;51.568;6.932;2022-08-11T02:10:20;55419.19;;;-144.14;82.79
7075;BME280;3578;51.568;6.932;2022-08-11T02:13:14;55411.19;;;-144.14;83.77
7075;BME280;3578;51.568;6.932;2022-08-11T02:15:54;55401.16;;;-144.14;84.24
7075;BME280;3578;51.568;6.932;2022-08-11T02:18:27;55347.00;;;-144.14;84.85
7075;BME280;3578;51.568;6.932;2022-08-11T02:21:23;55363.03;;;-144.14;85.46
7075;BME280;3578;51.568;6.932;2022-08-11T02:24:16;55359.03;;;-144.14;85.59
7075;BME280;3578;51.568;6.932;2022-08-11T02:26:54;55353.03;;;-144.14;85.04
7075;BME280;3578;51.568;6.932;2022-08-11T02:29:32;55355.03;;;-144.14;84.81
7075;BME280;3578;51.568;6.932;2022-08-11T02:32:08;55326.94;;;-144.14;85.01
7075;BME280;3578;51.568;6.932;2022-08-11T02:35:07;55294.88;;;-144.14;86.01
7075;BME280;3578;51.568;6.932;2022-08-11T02:37:50;55286.84;;;-144.14;86.22
7075;BME280;3578;51.568;6.932;2022-08-11T02:40:37;55302.88;;;-144.14;86.76
7075;BME280;3578;51.568;6.932;2022-08-11T02:43:26;55266.78;;;-144.14;86.85
7075;BME280;3578;51.568;6.932;2022-08-11T02:46:17;55262.78;;;-144.14;86.68
7075;BME280;3578;51.568;6.932;2022-08-11T02:48:57;55238.72;;;-144.14;86.43
7075;BME280;3578;51.568;6.932;2022-08-11T02:51:59;55240.72;;;-144.14;87.25
7075;BME280;3578;51.568;6.932;2022-08-11T02:54:36;55246.75;;;-144.14;88.23
7075;BME280;3578;51.568;6.932;2022-08-11T02:57:12;55210.63;;;-144.14;88.52
7075;BME280;3578;51.568;6.932;2022-08-11T02:59:48;55218.66;;;-144.14;88.78
7075;BME280;3578;51.568;6.932;2022-08-11T03:02:46;55218.66;;;-144.14;89.42
7075;BME280;3578;51.568;6.932;2022-08-11T03:05:26;55234.72;;;-144.14;88.84
7075;BME280;3578;51.568;6.932;2022-08-11T03:08:37;55208.63;;;-144.14;88.44
7075;BME280;3578;51.568;6.932;2022-08-11T03:11:11;55200.63;;;-144.14;88.55
7075;BME280;3578;51.568;6.932;2022-08-11T03:14:14;55206.63;;;-144.14;88.42
7075;BME280;3578;51.568;6.932;2022-08-11T03:17:14;55242.72;;;-144.14;88.11
7075;BME280;3578;51.568;6.932;2022-08-11T03:19:56;55186.59;;;-144.14;88.47
7075;BME280;3578;51.568;6.932;2022-08-11T03:22:33;55186.59;;;-144.14;89.12
7075;BME280;3578;51.568;6.932;2022-08-11T03:25:09;55174.56;;;-144.14;89.50
7075;BME280;3578;51.568;6.932;2022-08-11T03:27:51;55180.56;;;-144.14;90.09
7075;BME280;3578;51.568;6.932;2022-08-11T03:30:25;55158.50;;;-144.14;90.22
7075;BME280;3578;51.568;6.932;2022-08-11T03:33:13;55144.47;;;-144.14;90.36
7075;BME280;3578;51.568;6.932;2022-08-11T03:36:15;55134.44;;;-144.14;90.63
7075;BME280;3578;51.568;6.932;2022-08-11T03:39:05;55138.44;;;-144.14;90.55
7075;BME280;3578;51.568;6.932;2022-08-11T03:41:43;55176.56;;;-144.14;90.79
7075;BME280;3578;51.568;6.932;2022-08-11T03:44:31;55150.47;;;-144.14;90.81
7075;BME280;3578;51.568;6.932;2022-08-11T03:47:17;55122.41;;;-144.14;91.04
7075;BME280;3578;51.568;6.932;2022-08-11T03:50:06;55130.44;;;-144.14;91.05
7075;BME280;3578;51.568;6.932;2022-08-11T03:52:50;55078.28;;;-144.14;90.91
7075;BME280;3578;51.568;6.932;2022-08-11T03:55:32;55106.38;;;-144.14;91.06
7075;BME280;3578;51.568;6.932;2022-08-11T03:58:51;55054.25;;;-144.14;91.05
7075;BME280;3578;51.568;6.932;2022-08-11T04:02:19;55124.41;;;-144.14;91.41
7075;BME280;3578;51.568;6.932;2022-08-11T04:05:42;55072.28;;;-144.14;91.41
7075;BME280;3578;51.568;6.932;2022-08-11T04:08:37;55054.25;;;-144.14;91.41
7075;BME280;3578;51.568;6.932;2022-08-11T04:11:48;55054.25;;;-144.14;91.34
7075;BME280;3578;51.568;6.932;2022-08-11T04:22:29;55046.22;;;-144.14;91.92
7075;BME280;3578;51.568;6.932;2022-08-11T04:25:27;55022.16;;;-144.14;91.95
7075;BME280;3578;51.568;6.932;2022-08-11T04:28:36;55062.25;;;-144.14;91.96
7075;BME280;3578;51.568;6.932;2022-08-11T04:31:36;55076.28;;;-144.14;92.05
7075;BME280;3578;51.568;6.932;2022-08-11T04:34:35;55082.31;;;-144.14;91.69
7075;BME280;3578;51.568;6.932;2022-08-11T04:37:19;55114.38;;;-144.14;91.67
7075;BME280;3578;51.568;6.932;2022-08-11T04:40:42;55080.31;;;-144.14;91.26
7075;BME280;3578;51.568;6.932;2022-08-11T04:47:18;55126.41;;;-144.14;92.18
7075;BME280;3578;51.568;6.932;2022-08-11T04:50:21;55132.44;;;-144.14;92.28
7075;BME280;3578;51.568;6.932;2022-08-11T04:53:40;55090.31;;;-144.14;92.75
7075;BME280;3578;51.568;6.932;2022-08-11T04:56:28;55094.34;;;-144.14;92.74
7075;BME280;3578;51.568;6.932;2022-08-11T04:59:42;55138.44;;;-144.14;92.88
7075;BME280;3578;51.568;6.932;2022-08-11T05:03:13;55126.41;;;-144.14;93.12
7075;BME280;3578;51.568;6.932;2022-08-11T05:06:48;55130.44;;;-144.14;93.13
7075;BME280;3578;51.568;6.932;2022-08-11T05:09:48;55158.50;;;-144.14;93.52
7075;BME280;3578;51.568;6.932;2022-08-11T05:12:35;55168.53;;;-144.14;93.09
7075;BME280;3578;51.568;6.932;2022-08-11T05:15:12;55170.53;;;-144.14;92.70
7075;BME280;3578;51.568;6.932;2022-08-11T05:18:08;55144.47;;;-144.14;93.03
7075;BME280;3578;51.568;6.932;2022-08-11T05:21:11;55252.75;;;-144.14;92.77
7075;BME280;3578;51.568;6.932;2022-08-11T05:24:04;55184.56;;;-144.14;92.90
7075;BME280;3578;51.568;6.932;2022-08-11T05:26:50;55194.59;;;-144.14;93.76
7075;BME280;3578;51.568;6.932;2022-08-11T05:29:43;55222.66;;;-144.14;93.23
7075;BME280;3578;51.568;6.932;2022-08-11T05:32:35;55294.88;;;-144.14;93.41
7075;BME280;3578;51.568;6.932;2022-08-11T05:35:27;55296.88;;;-144.14;93.10
7075;BME280;3578;51.568;6.932;2022-08-11T05:37:57;55298.88;;;-144.14;92.92
7075;BME280;3578;51.568;6.932;2022-08-11T05:40:50;55306.91;;;-144.14;92.69
7075;BME280;3578;51.568;6.932;2022-08-11T05:43:43;55365.06;;;-144.14;92.99
7075;BME280;3578;51.568;6.932;2022-08-11T05:46:38;55330.97;;;-144.14;92.84
7075;BME280;3578;51.568;6.932;2022-08-11T05:49:24;55373.06;;;-144.14;92.78
7075;BME280;3578;51.568;6.932;2022-08-11T05:52:15;55419.19;;;-144.14;92.43
7075;BME280;3578;51.568;6.932;2022-08-11T05:55:03;55429.22;;;-144.14;92.11
7075;BME280;3578;51.568;6.932;2022-08-11T05:57:53;55467.31;;;-144.14;92.19
7075;BME280;3578;51.568;6.932;2022-08-11T06:00:21;55489.38;;;-144.14;92.24
7075;BME280;3578;51.568;6.932;2022-08-11T06:02:54;55459.31;;;-144.14;92.23
7075;BME280;3578;51.568;6.932;2022-08-11T06:05:22;55513.44;;;-144.14;92.28
7075;BME280;3578;51.568;6.932;2022-08-11T06:07:53;55555.56;;;-144.14;91.93
7075;BME280;3578;51.568;6.932;2022-08-11T06:10:28;55563.59;;;-144.14;91.44
7075;BME280;3578;51.568;6.932;2022-08-11T06:12:58;55593.66;;;-144.14;91.15
7075;BME280;3578;51.568;6.932;2022-08-11T06:15:28;55603.69;;;-144.14;91.00
7075;BME280;3578;51.568;6.932;2022-08-11T06:17:59;55603.69;;;-144.14;90.95
7075;BME280;3578;51.568;6.932;2022-08-11T06:20:29;55641.81;;;-144.14;90.97
7075;BME280;3578;51.568;6.932;2022-08-11T06:23:04;55675.91;;;-144.14;90.81
7075;BME280;3578;51.568;6.932;2022-08-11T06:25:35;55683.91;;;-144.14;90.31
7075;BME280;3578;51.568;6.932;2022-08-11T06:28:05;55714.00;;;-144.14;90.02
7075;BME280;3578;51.568;6.932;2022-08-11T06:30:36;55736.06;;;-144.14;89.61
7075;BME280;3578;51.568;6.932;2022-08-11T06:33:12;55806.25;;;-144.14;88.39
7075;BME280;3578;51.568;6.932;2022-08-11T06:35:50;55840.34;;;-144.14;85.28
7075;BME280;3578;51.568;6.932;2022-08-11T06:38:43;56042.94;;;-144.14;82.88
7075;BME280;3578;51.568;6.932;2022-08-11T06:41:19;56129.16;;;-144.14;77.16
7075;BME280;3578;51.568;6.932;2022-08-11T06:44:15;56199.38;;;-144.14;74.09
7075;BME280;3578;51.568;6.932;2022-08-11T06:46:48;56201.38;;;-144.14;72.83
7075;BME280;3578;51.568;6.932;2022-08-11T06:49:21;56211.41;;;-144.14;73.85
7075;BME280;3578;51.568;6.932;2022-08-11T06:52:09;56261.56;;;-144.14;67.23
7075;BME280;3578;51.568;6.932;2022-08-11T06:54:43;56275.59;;;-144.14;67.60
7075;BME280;3578;51.568;6.932;2022-08-11T06:57:18;56410.00;;;-144.14;67.22
7075;BME280;3578;51.568;6.932;2022-08-11T07:00:05;56401.97;;;-144.14;66.11
7075;BME280;3578;51.568;6.932;2022-08-11T07:02:56;56498.25;;;-144.14;70.83
7075;BME280;3578;51.568;6.932;2022-08-11T07:05:37;56646.72;;;-144.14;63.95
7075;BME280;3578;51.568;6.932;2022-08-11T07:08:44;56825.25;;;-144.14;61.17
7075;BME280;3578;51.568;6.932;2022-08-11T07:11:58;56861.38;;;-144.14;62.18
7075;BME280;3578;51.568;6.932;2022-08-11T07:14:49;56871.41;;;-144.14;61.73
7075;BME280;3578;51.568;6.932;2022-08-11T07:17:40;56915.53;;;-144.14;66.13
7075;BME280;3578;51.568;6.932;2022-08-11T07:20:09;57011.84;;;-144.14;56.22
7075;BME280;3578;51.568;6.932;2022-08-11T07:23:00;57130.22;;;-144.14;60.79
7075;BME280;3578;51.568;6.932;2022-08-11T07:25:50;57188.41;;;-144.14;58.64
7075;BME280;3578;51.568;6.932;2022-08-11T07:28:40;57258.63;;;-144.14;53.08
7075;BME280;3578;51.568;6.932;2022-08-11T07:31:32;57419.16;;;-144.14;45.48
7075;BME280;3578;51.568;6.932;2022-08-11T07:34:16;57559.59;;;-144.14;50.43
7075;BME280;3578;51.568;6.932;2022-08-11T07:36:51;57573.66;;;-144.14;50.94
7075;BME280;3578;51.568;6.932;2022-08-11T07:39:24;57481.34;;;-144.14;44.59
7075;BME280;3578;51.568;6.932;2022-08-11T07:41:55;57559.59;;;-144.14;45.04
7075;BME280;3578;51.568;6.932;2022-08-11T07:44:24;57509.44;;;-144.14;42.61
7075;BME280;3578;51.568;6.932;2022-08-11T07:46:54;57613.78;;;-144.14;45.72
7075;BME280;3578;51.568;6.932;2022-08-11T07:49:43;57671.97;;;-144.14;44.17
7075;BME280;3578;51.568;6.932;2022-08-11T07:52:32;57688.03;;;-144.14;41.82
7075;BME280;3578;51.568;6.932;2022-08-11T07:55:06;57750.25;;;-144.14;42.02
7075;BME280;3578;51.568;6.932;2022-08-11T07:57:34;57838.53;;;-144.14;43.30
7075;BME280;3578;51.568;6.932;2022-08-11T08:00:19;57993.06;;;-144.14;44.73
7075;BME280;3578;51.568;6.932;2022-08-11T08:03:04;57975.00;;;-144.14;40.45
7075;BME280;3578;51.568;6.932;2022-08-11T08:05:50;58107.47;;;-144.14;43.07
7075;BME280;3578;51.568;6.932;2022-08-11T08:08:36;58067.31;;;-144.14;42.74
7075;BME280;3578;51.568;6.932;2022-08-11T08:11:25;58051.28;;;-144.14;44.22
7075;BME280;3578;51.568;6.932;2022-08-11T08:14:10;58015.16;;;-144.14;43.19
7075;BME280;3578;51.568;6.932;2022-08-11T08:16:56;58033.22;;;-144.14;43.59
7075;BME280;3578;51.568;6.932;2022-08-11T08:19:42;58015.16;;;-144.14;41.97
7075;BME280;3578;51.568;6.932;2022-08-11T08:22:17;58029.19;;;-144.14;41.09
7075;BME280;3578;51.568;6.932;2022-08-11T08:24:45;58071.34;;;-144.14;41.44
7075;BME280;3578;51.568;6.932;2022-08-11T08:27:14;58099.44;;;-144.14;41.13
7075;BME280;3578;51.568;6.932;2022-08-11T08:29:43;58063.31;;;-144.14;38.49
7075;BME280;3578;51.568;6.932;2022-08-11T08:32:29;58139.56;;;-144.14;38.17
7075;BME280;3578;51.568;6.932;2022-08-11T08:35:00;58203.81;;;-144.14;38.44
7075;BME280;3578;51.568;6.932;2022-08-11T08:37:28;58219.84;;;-144.14;38.74
7075;BME280;3578;51.568;6.932;2022-08-11T08:39:55;58300.13;;;-144.14;38.79
7075;BME280;3578;51.568;6.932;2022-08-11T08:42:27;58225.88;;;-144.14;37.37
7075;BME280;3578;51.568;6.932;2022-08-11T08:45:00;58245.94;;;-144.14;38.22
7075;BME280;3578;51.568;6.932;2022-08-11T08:47:30;58280.06;;;-144.14;38.49
7075;BME280;3578;51.568;6.932;2022-08-11T08:50:04;58320.22;;;-144.14;38.17
7075;BME280;3578;51.568;6.932;2022-08-11T08:52:37;58300.13;;;-144.14;37.46
7075;BME280;3578;51.568;6.932;2022-08-11T08:55:08;58328.25;;;-144.14;37.44
7075;BME280;3578;51.568;6.932;2022-08-11T08:57:41;58300.13;;;-144.14;37.70
7075;BME280;3578;51.568;6.932;2022-08-11T09:00:10;58418.56;;;-144.14;37.40
7075;BME280;3578;51.568;6.932;2022-08-11T09:02:41;58448.66;;;-144.14;36.53
7075;BME280;3578;51.568;6.932;2022-08-11T09:05:09;58510.88;;;-144.14;36.13
7075;BME280;3578;51.568;6.932;2022-08-11T09:07:37;58504.88;;;-144.14;36.02
7075;BME280;3578;51.568;6.932;2022-08-11T09:10:07;58512.91;;;-144.14;36.32
7075;BME280;3578;51.568;6.932;2022-08-11T09:12:39;58514.91;;;-144.14;35.51
7075;BME280;3578;51.568;6.932;2022-08-11T09:15:09;58545.00;;;-144.14;36.05
7075;BME280;3578;51.568;6.932;2022-08-11T09:17:40;58514.91;;;-144.14;35.42
7075;BME280;3578;51.568;6.932;2022-08-11T09:20:12;58512.91;;;-144.14;35.82
7075;BME280;3578;51.568;6.932;2022-08-11T09:22:43;58603.22;;;-144.14;35.90
7075;BME280;3578;51.568;6.932;2022-08-11T09:25:30;58733.69;;;-144.14;36.42
7075;BME280;3578;51.568;6.932;2022-08-11T09:28:19;58669.47;;;-144.14;36.36
7075;BME280;3578;51.568;6.932;2022-08-11T09:30:49;58649.38;;;-144.14;36.41
7075;BME280;3578;51.568;6.932;2022-08-11T09:33:20;58685.53;;;-144.14;37.25
7075;BME280;3578;51.568;6.932;2022-08-11T09:35:48;58643.38;;;-144.14;35.76
7075;BME280;3578;51.568;6.932;2022-08-11T09:38:19;58665.44;;;-144.14;35.58
7075;BME280;3578;51.568;6.932;2022-08-11T09:41:08;58795.94;;;-144.14;34.64
7075;BME280;3578;51.568;6.932;2022-08-11T09:43:43;58840.09;;;-144.14;34.09
7075;BME280;3578;51.568;6.932;2022-08-11T09:46:29;58884.25;;;-144.14;33.45
7075;BME280;3578;51.568;6.932;2022-08-11T09:48:59;58818.00;;;-144.14;32.06
7075;BME280;3578;51.568;6.932;2022-08-11T09:51:30;58785.88;;;-144.14;31.36
7075;BME280;3578;51.568;6.932;2022-08-11T09:53:59;58781.88;;;-144.14;32.16
7075;BME280;3578;51.568;6.932;2022-08-11T09:56:28;58801.94;;;-144.14;33.19
7075;BME280;3578;51.568;6.932;2022-08-11T09:59:18;58946.47;;;-144.14;32.78
7075;BME280;3578;51.568;6.932;2022-08-11T10:01:51;58956.53;;;-144.14;31.76
7075;BME280;3578;51.568;6.932;2022-08-11T10:04:25;59040.84;;;-144.14;32.03
7075;BME280;3578;51.568;6.932;2022-08-11T10:06:57;59121.13;;;-144.14;32.37
7075;BME280;3578;51.568;6.932;2022-08-11T10:09:28;59101.06;;;-144.14;31.50
7075;BME280;3578;51.568;6.932;2022-08-11T10:12:00;59125.16;;;-144.14;31.76
7075;BME280;3578;51.568;6.932;2022-08-11T10:14:31;59209.47;;;-144.14;31.27
7075;BME280;3578;51.568;6.932;2022-08-11T10:17:19;59233.56;;;-144.14;31.47
7075;BME280;3578;51.568;6.932;2022-08-11T10:19:48;59197.41;;;-144.14;30.25
7075;BME280;3578;51.568;6.932;2022-08-11T10:22:17;59295.78;;;-144.14;30.46
7075;BME280;3578;51.568;6.932;2022-08-11T10:25:04;59299.81;;;-144.14;30.51
7075;BME280;3578;51.568;6.932;2022-08-11T10:27:49;59201.44;;;-144.14;29.81
7075;BME280;3578;51.568;6.932;2022-08-11T10:30:24;59203.44;;;-144.14;30.82
7075;BME280;3578;51.568;6.932;2022-08-11T10:33:11;59221.50;;;-144.14;30.72
7075;BME280;3578;51.568;6.932;2022-08-11T10:35:57;59301.81;;;-144.14;29.47
7075;BME280;3578;51.568;6.932;2022-08-11T10:38:25;59404.22;;;-144.14;29.38
7075;BME280;3578;51.568;6.932;2022-08-11T10:40:53;59400.19;;;-144.14;29.35
7075;BME280;3578;51.568;6.932;2022-08-11T10:43:36;59378.13;;;-144.14;29.25
7075;BME280;3578;51.568;6.932;2022-08-11T10:46:09;59366.06;;;-144.14;29.32
7075;BME280;3578;51.568;6.932;2022-08-11T10:48:55;59418.28;;;-144.14;29.29
7075;BME280;3578;51.568;6.932;2022-08-11T10:51:25;59376.09;;;-144.14;29.57
7075;BME280;3578;51.568;6.932;2022-08-11T10:54:10;59440.34;;;-144.14;30.34
7075;BME280;3578;51.568;6.932;2022-08-11T10:56:55;59426.31;;;-144.14;29.56
7075;BME280;3578;51.568;6.932;2022-08-11T10:59:40;59448.38;;;-144.14;29.82
7075;BME280;3578;51.568;6.932;2022-08-11T11:02:12;59568.84;;;-144.14;29.47
7075;BME280;3578;51.568;6.932;2022-08-11T11:04:56;59671.25;;;-144.14;28.78
7075;BME280;3578;51.568;6.932;2022-08-11T11:07:34;59665.22;;;-144.14;29.06
7075;BME280;3578;51.568;6.932;2022-08-11T11:10:06;59637.13;;;-144.14;28.79
7075;BME280;3578;51.568;6.932;2022-08-11T11:12:38;59685.31;;;-144.14;28.80
7075;BME280;3578;51.568;6.932;2022-08-11T11:15:25;59576.88;;;-144.14;28.95
7075;BME280;3578;51.568;6.932;2022-08-11T11:18:18;59372.09;;;-144.14;29.17
7075;BME280;3578;51.568;6.932;2022-08-11T11:20:52;59362.06;;;-144.14;29.06
7075;BME280;3578;51.568;6.932;2022-08-11T11:23:26;59418.28;;;-144.14;28.95
7075;BME280;3578;51.568;6.932;2022-08-11T11:26:26;59538.72;;;-144.14;29.02
7075;BME280;3578;51.568;6.932;2022-08-11T11:29:30;59594.94;;;-144.14;29.09
7075;BME280;3578;51.568;6.932;2022-08-11T11:32:19;59560.81;;;-144.14;28.67
7075;BME280;3578;51.568;6.932;2022-08-11T11:35:25;59536.72;;;-144.14;28.35
7075;BME280;3578;51.568;6.932;2022-08-11T11:37:56;59552.78;;;-144.14;29.42
7075;BME280;3578;51.568;6.932;2022-08-11T11:40:24;59504.59;;;-144.14;29.25
7075;BME280;3578;51.568;6.932;2022-08-11T11:42:56;59484.53;;;-144.14;28.51
7075;BME280;3578;51.568;6.932;2022-08-11T11:45:24;59546.75;;;-144.14;28.89
7075;BME280;3578;51.568;6.932;2022-08-11T11:47:54;59590.94;;;-144.14;28.38
7075;BME280;3578;51.568;6.932;2022-08-11T11:50:26;59721.44;;;-144.14;28.02
7075;BME280;3578;51.568;6.932;2022-08-11T11:52:55;59765.63;;;-144.14;28.32
7075;BME280;3578;51.568;6.932;2022-08-11T11:55:23;59797.75;;;-144.14;28.13
7075;BME280;3578;51.568;6.932;2022-08-11T11:57:52;59777.66;;;-144.14;27.73
7075;BME280;3578;51.568;6.932;2022-08-11T12:00:39;59829.88;;;-144.14;28.16
7075;BME280;3578;51.568;6.932;2022-08-11T12:03:24;59880.09;;;-144.14;28.60
7075;BME280;3578;51.568;6.932;2022-08-11T12:05:53;59868.03;;;-144.14;28.51
7075;BME280;3578;51.568;6.932;2022-08-11T12:08:21;59882.09;;;-144.14;28.10
7075;BME280;3578;51.568;6.932;2022-08-11T12:10:53;59872.03;;;-144.14;27.87
7075;BME280;3578;51.568;6.932;2022-08-11T12:13:43;59866.03;;;-144.14;27.74
7075;BME280;3578;51.568;6.932;2022-08-11T12:16:11;59888.13;;;-144.14;27.40
7075;BME280;3578;51.568;6.932;2022-08-11T12:18:40;59880.09;;;-144.14;28.40
7075;BME280;3578;51.568;6.932;2022-08-11T12:21:10;59886.09;;;-144.14;27.79
7075;BME280;3578;51.568;6.932;2022-08-11T12:23:41;59934.28;;;-144.14;28.01
7075;BME280;3578;51.568;6.932;2022-08-11T12:26:26;60066.84;;;-144.14;28.70
7075;BME280;3578;51.568;6.932;2022-08-11T12:29:12;59996.53;;;-144.14;27.34
7075;BME280;3578;51.568;6.932;2022-08-11T12:31:41;60002.56;;;-144.14;27.51
7075;BME280;3578;51.568;6.932;2022-08-11T12:34:11;59958.41;;;-144.14;27.44
7075;BME280;3578;51.568;6.932;2022-08-11T12:36:45;60022.66;;;-144.14;28.14
7075;BME280;3578;51.568;6.932;2022-08-11T12:39:21;60058.78;;;-144.14;27.77
7075;BME280;3578;51.568;6.932;2022-08-11T12:42:12;59982.50;;;-144.14;27.91
7075;BME280;3578;51.568;6.932;2022-08-11T12:44:58;59980.47;;;-144.14;28.10
7075;BME280;3578;51.568;6.932;2022-08-11T12:47:47;60096.94;;;-144.14;28.06
7075;BME280;3578;51.568;6.932;2022-08-11T12:50:34;60267.66;;;-144.14;27.55
7075;BME280;3578;51.568;6.932;2022-08-11T12:53:25;60245.56;;;-144.14;27.43
7075;BME280;3578;51.568;6.932;2022-08-11T12:55:55;60207.41;;;-144.14;27.31
7075;BME280;3578;51.568;6.932;2022-08-11T12:58:42;60211.41;;;-144.14;28.06
7075;BME280;3578;51.568;6.932;2022-08-11T13:01:11;60139.13;;;-144.14;27.23
7075;BME280;3578;51.568;6.932;2022-08-11T13:03:56;60167.25;;;-144.14;27.08
7075;BME280;3578;51.568;6.932;2022-08-11T13:06:42;60147.16;;;-144.14;27.57
7075;BME280;3578;51.568;6.932;2022-08-11T13:09:11;60119.03;;;-144.14;27.50
7075;BME280;3578;51.568;6.932;2022-08-11T13:11:39;60127.06;;;-144.14;28.29
7075;BME280;3578;51.568;6.932;2022-08-11T13:14:25;60058.78;;;-144.14;27.98
7075;BME280;3578;51.568;6.932;2022-08-11T13:16:53;60058.78;;;-144.14;27.56
7075;BME280;3578;51.568;6.932;2022-08-11T13:19:37;60157.19;;;-144.14;27.27
7075;BME280;3578;51.568;6.932;2022-08-11T13:22:07;60279.69;;;-144.14;27.38
7075;BME280;3578;51.568;6.932;2022-08-11T13:24:36;60341.94;;;-144.14;26.96
7075;BME280;3578;51.568;6.932;2022-08-11T13:27:05;60321.88;;;-144.14;27.21
7075;BME280;3578;51.568;6.932;2022-08-11T13:29:32;60255.59;;;-144.14;27.29
7075;BME280;3578;51.568;6.932;2022-08-11T13:32:01;60267.66;;;-144.14;27.49
7075;BME280;3578;51.568;6.932;2022-08-11T13:34:29;60269.66;;;-144.14;27.23
7075;BME280;3578;51.568;6.932;2022-08-11T13:37:00;60179.28;;;-144.14;27.54
7075;BME280;3578;51.568;6.932;2022-08-11T13:39:31;60111.00;;;-144.14;27.47
7075;BME280;3578;51.568;6.932;2022-08-11T13:42:02;60265.63;;;-144.14;27.57
7075;BME280;3578;51.568;6.932;2022-08-11T13:44:33;60245.56;;;-144.14;27.20
7075;BME280;3578;51.568;6.932;2022-08-11T13:47:04;60299.78;;;-144.14;27.25
7075;BME280;3578;51.568;6.932;2022-08-11T13:49:36;60335.94;;;-144.14;27.11
7075;BME280;3578;51.568;6.932;2022-08-11T13:52:05;60297.78;;;-144.14;27.02
7075;BME280;3578;51.568;6.932;2022-08-11T13:54:36;60259.63;;;-144.14;27.38
7075;BME280;3578;51.568;6.932;2022-08-11T13:57:10;60315.84;;;-144.14;27.13
7075;BME280;3578;51.568;6.932;2022-08-11T13:59:39;60374.09;;;-144.14;27.17
7075;BME280;3578;51.568;6.932;2022-08-11T14:02:15;60384.13;;;-144.14;27.30
7075;BME280;3578;51.568;6.932;2022-08-11T14:04:47;60406.22;;;-144.14;27.64
7075;BME280;3578;51.568;6.932;2022-08-11T14:07:21;60331.91;;;-144.14;27.48
7075;BME280;3578;51.568;6.932;2022-08-11T14:09:55;60392.16;;;-144.14;27.32
7075;BME280;3578;51.568;6.932;2022-08-11T14:12:29;60335.94;;;-144.14;27.56
7075;BME280;3578;51.568;6.932;2022-08-11T14:15:19;60376.09;;;-144.14;27.02
7075;BME280;3578;51.568;6.932;2022-08-11T14:17:52;60482.53;;;-144.14;28.29
7075;BME280;3578;51.568;6.932;2022-08-11T14:20:20;60460.44;;;-144.14;27.87
7075;BME280;3578;51.568;6.932;2022-08-11T14:22:48;60456.44;;;-144.14;27.14
7075;BME280;3578;51.568;6.932;2022-08-11T14:25:16;60458.44;;;-144.14;27.34
7075;BME280;3578;51.568;6.932;2022-08-11T14:27:45;60408.22;;;-144.14;27.05
7075;BME280;3578;51.568;6.932;2022-08-11T14:30:14;60442.38;;;-144.14;27.02
7075;BME280;3578;51.568;6.932;2022-08-11T14:32:55;60496.59;;;-144.14;27.64
7075;BME280;3578;51.568;6.932;2022-08-11T14:35:24;60514.66;;;-144.14;26.82
7075;BME280;3578;51.568;6.932;2022-08-11T14:37:53;60528.72;;;-144.14;26.83
7075;BME280;3578;51.568;6.932;2022-08-11T14:40:22;60488.56;;;-144.14;26.39
7075;BME280;3578;51.568;6.932;2022-08-11T14:43:10;60498.59;;;-144.14;27.33
7075;BME280;3578;51.568;6.932;2022-08-11T14:46:09;60388.16;;;-144.14;26.53
7075;BME280;3578;51.568;6.932;2022-08-11T14:49:09;60374.09;;;-144.14;27.57
7075;BME280;3578;51.568;6.932;2022-08-11T14:51:37;60392.16;;;-144.14;28.60